sensor_id;sensor_type;location;lat;lon;timestamp;temperature;humidity
53904;DHT22;39812;52.430;16.936;2023-03-01T00:00:37;-1.30;99.90
53904;DHT22;39812;52.430;16.936;2023-03-01T00:03:03;-1.30;99.90
53904;DHT22;39812;52.430;16.936;2023-03-01T00:05:28;-1.20;99.90
53904;DHT22;39812;52.430;16.936;2023-03-01T00:07:54;-1.20;99.90
53904;DHT22;39812;52.430;16.936;2023-03-01T00:10:20;-1.30;99.90
53904;DHT22;39812;52.430;16.936;2023-03-01T00:12:46;-1.40;99.90
53904;DHT22;39812;52.430;16.936;2023-03-01T00:15:11;-1.60;99.90
53904;DHT22;39812;52.430;16.936;2023-03-01T00:17:37;-1.50;99.90
53904;DHT22;39812;52.430;16.936;2023-03-01T00:20:03;-1.70;99.90
53904;DHT22;39812;52.430;16.936;2023-03-01T00:22:33;-1.80;99.90
53904;DHT22;39812;52.430;16.936;2023-03-01T00:24:58;-1.80;99.90
53904;DHT22;39812;52.430;16.936;2023-03-01T00:27:24;-1.90;99.90
53904;DHT22;39812;52.430;16.936;2023-03-01T00:29:50;-2.10;99.90
53904;DHT22;39812;52.430;16.936;2023-03-01T00:32:15;-2.20;99.90
53904;DHT22;39812;52.430;16.936;2023-03-01T00:34:41;-2.20;99.90
53904;DHT22;39812;52.430;16.936;2023-03-01T00:37:07;-2.30;99.90
53904;DHT22;39812;52.430;16.936;2023-03-01T00:39:32;-2.40;99.90
53904;DHT22;39812;52.430;16.936;2023-03-01T00:41:59;-2.40;99.90
53904;DHT22;39812;52.430;16.936;2023-03-01T00:44:24;-2.50;99.90
53904;DHT22;39812;52.430;16.936;2023-03-01T00:46:50;-2.40;99.90
53904;DHT22;39812;52.430;16.936;2023-03-01T00:49:16;-2.40;99.90
53904;DHT22;39812;52.430;16.936;2023-03-01T00:51:41;-2.40;99.90
53904;DHT22;39812;52.430;16.936;2023-03-01T00:54:08;-2.30;99.90
53904;DHT22;39812;52.430;16.936;2023-03-01T00:56:34;-2.10;99.90
53904;DHT22;39812;52.430;16.936;2023-03-01T00:59:00;-2.00;99.90
53904;DHT22;39812;52.430;16.936;2023-03-01T01:01:28;-1.80;99.90
53904;DHT22;39812;52.430;16.936;2023-03-01T01:03:59;-1.80;99.90
53904;DHT22;39812;52.430;16.936;2023-03-01T01:06:34;-1.70;99.90
53904;DHT22;39812;52.430;16.936;2023-03-01T01:09:02;-1.80;99.90
53904;DHT22;39812;52.430;16.936;2023-03-01T01:11:29;-1.80;99.90
53904;DHT22;39812;52.430;16.936;2023-03-01T01:13:56;-2.00;99.90
53904;DHT22;39812;52.430;16.936;2023-03-01T01:16:24;-2.00;99.90
53904;DHT22;39812;52.430;16.936;2023-03-01T01:18:51;-2.10;99.90
53904;DHT22;39812;52.430;16.936;2023-03-01T01:21:20;-2.00;99.90
53904;DHT22;39812;52.430;16.936;2023-03-01T01:23:46;-1.90;99.90
53904;DHT22;39812;52.430;16.936;2023-03-01T01:26:19;-1.90;99.90
53904;DHT22;39812;52.430;16.936;2023-03-01T01:28:45;-1.80;99.90
53904;DHT22;39812;52.430;16.936;2023-03-01T01:31:11;-1.60;99.90
53904;DHT22;39812;52.430;16.936;2023-03-01T01:33:37;-1.60;99.90
53904;DHT22;39812;52.430;16.936;2023-03-01T01:36:04;-1.60;99.90
53904;DHT22;39812;52.430;16.936;2023-03-01T01:38:30;-1.60;99.90
53904;DHT22;39812;52.430;16.936;2023-03-01T01:40:56;-1.60;99.90
53904;DHT22;39812;52.430;16.936;2023-03-01T01:43:28;-1.50;99.90
53904;DHT22;39812;52.430;16.936;2023-03-01T01:46:21;-1.50;99.90
53904;DHT22;39812;52.430;16.936;2023-03-01T01:49:07;-1.40;99.90
53904;DHT22;39812;52.430;16.936;2023-03-01T01:51:40;-1.40;99.90
53904;DHT22;39812;52.430;16.936;2023-03-01T01:54:14;-1.50;99.90
53904;DHT22;39812;52.430;16.936;2023-03-01T01:56:43;-1.50;99.90
53904;DHT22;39812;52.430;16.936;2023-03-01T01:59:10;-1.60;99.90
53904;DHT22;39812;52.430;16.936;2023-03-01T02:01:36;-1.70;99.90
53904;DHT22;39812;52.430;16.936;2023-03-01T02:04:02;-1.90;99.90
53904;DHT22;39812;52.430;16.936;2023-03-01T02:06:36;-2.10;99.90
53904;DHT22;39812;52.430;16.936;2023-03-01T02:09:07;-2.40;99.90
53904;DHT22;39812;52.430;16.936;2023-03-01T02:11:34;-2.30;99.90
53904;DHT22;39812;52.430;16.936;2023-03-01T02:14:03;-2.40;99.90
53904;DHT22;39812;52.430;16.936;2023-03-01T02:16:29;-2.40;99.90
53904;DHT22;39812;52.430;16.936;2023-03-01T02:18:57;-2.50;99.90
53904;DHT22;39812;52.430;16.936;2023-03-01T02:22:13;-2.60;99.90
53904;DHT22;39812;52.430;16.936;2023-03-01T02:27:00;-2.40;99.90
53904;DHT22;39812;52.430;16.936;2023-03-01T02:29:27;-2.30;99.90
53904;DHT22;39812;52.430;16.936;2023-03-01T02:31:54;-2.30;99.90
53904;DHT22;39812;52.430;16.936;2023-03-01T02:34:24;-2.40;99.90
53904;DHT22;39812;52.430;16.936;2023-03-01T02:37:02;-2.40;99.90
53904;DHT22;39812;52.430;16.936;2023-03-01T02:39:39;-2.40;99.90
53904;DHT22;39812;52.430;16.936;2023-03-01T02:42:11;-2.40;99.90
53904;DHT22;39812;52.430;16.936;2023-03-01T02:44:37;-2.50;99.90
53904;DHT22;39812;52.430;16.936;2023-03-01T02:47:04;-2.40;99.90
53904;DHT22;39812;52.430;16.936;2023-03-01T02:49:33;-2.50;99.90
53904;DHT22;39812;52.430;16.936;2023-03-01T02:57:23;-2.60;99.90
53904;DHT22;39812;52.430;16.936;2023-03-01T02:59:51;-2.60;99.90
53904;DHT22;39812;52.430;16.936;2023-03-01T03:02:27;-2.60;99.90
53904;DHT22;39812;52.430;16.936;2023-03-01T03:05:11;-2.50;99.90
53904;DHT22;39812;52.430;16.936;2023-03-01T03:07:39;-2.50;99.90
53904;DHT22;39812;52.430;16.936;2023-03-01T03:10:08;-2.50;99.90
53904;DHT22;39812;52.430;16.936;2023-03-01T03:12:34;-2.70;99.90
53904;DHT22;39812;52.430;16.936;2023-03-01T03:15:00;-2.60;99.90
53904;DHT22;39812;52.430;16.936;2023-03-01T03:17:26;-2.60;99.90
53904;DHT22;39812;52.430;16.936;2023-03-01T03:19:51;-2.60;99.90
53904;DHT22;39812;52.430;16.936;2023-03-01T03:22:17;-2.70;99.90
53904;DHT22;39812;52.430;16.936;2023-03-01T03:24:42;-2.70;99.90
53904;DHT22;39812;52.430;16.936;2023-03-01T03:27:08;-2.70;99.90
53904;DHT22;39812;52.430;16.936;2023-03-01T03:29:34;-2.70;99.90
53904;DHT22;39812;52.430;16.936;2023-03-01T03:32:00;-2.70;99.90
53904;DHT22;39812;52.430;16.936;2023-03-01T03:34:25;-2.70;99.90
53904;DHT22;39812;52.430;16.936;2023-03-01T03:36:55;-2.70;99.90
53904;DHT22;39812;52.430;16.936;2023-03-01T03:39:23;-2.70;99.90
53904;DHT22;39812;52.430;16.936;2023-03-01T03:41:49;-2.80;99.90
53904;DHT22;39812;52.430;16.936;2023-03-01T03:44:14;-2.80;99.90
53904;DHT22;39812;52.430;16.936;2023-03-01T03:46:40;-2.80;99.90
53904;DHT22;39812;52.430;16.936;2023-03-01T03:49:06;-2.90;99.90
53904;DHT22;39812;52.430;16.936;2023-03-01T03:51:31;-2.80;99.90
53904;DHT22;39812;52.430;16.936;2023-03-01T03:53:57;-2.80;99.90
53904;DHT22;39812;52.430;16.936;2023-03-01T03:56:23;-2.80;99.90
53904;DHT22;39812;52.430;16.936;2023-03-01T03:58:52;-2.90;99.90
53904;DHT22;39812;52.430;16.936;2023-03-01T04:01:18;-2.80;99.90
53904;DHT22;39812;52.430;16.936;2023-03-01T04:03:43;-2.90;99.90
53904;DHT22;39812;52.430;16.936;2023-03-01T04:06:13;-2.90;99.90
53904;DHT22;39812;52.430;16.936;2023-03-01T04:08:39;-3.10;99.90
53904;DHT22;39812;52.430;16.936;2023-03-01T04:11:06;-3.10;99.90
53904;DHT22;39812;52.430;16.936;2023-03-01T04:13:52;-3.20;99.90
53904;DHT22;39812;52.430;16.936;2023-03-01T04:16:18;-3.20;99.90
53904;DHT22;39812;52.430;16.936;2023-03-01T04:18:44;-3.20;99.90
53904;DHT22;39812;52.430;16.936;2023-03-01T04:21:10;-3.20;99.90
53904;DHT22;39812;52.430;16.936;2023-03-01T04:23:37;-3.20;99.90
53904;DHT22;39812;52.430;16.936;2023-03-01T04:26:03;-3.30;99.90
53904;DHT22;39812;52.430;16.936;2023-03-01T04:28:36;-3.50;99.90
53904;DHT22;39812;52.430;16.936;2023-03-01T04:31:05;-3.60;99.90
53904;DHT22;39812;52.430;16.936;2023-03-01T04:33:53;-3.50;99.90
53904;DHT22;39812;52.430;16.936;2023-03-01T04:36:22;-3.50;99.90
53904;DHT22;39812;52.430;16.936;2023-03-01T04:38:48;-3.30;99.90
53904;DHT22;39812;52.430;16.936;2023-03-01T04:41:16;-3.10;99.90
53904;DHT22;39812;52.430;16.936;2023-03-01T04:43:42;-3.00;99.90
53904;DHT22;39812;52.430;16.936;2023-03-01T04:46:14;-2.90;99.90
53904;DHT22;39812;52.430;16.936;2023-03-01T04:48:41;-2.90;99.90
53904;DHT22;39812;52.430;16.936;2023-03-01T04:51:08;-2.90;99.90
53904;DHT22;39812;52.430;16.936;2023-03-01T04:53:34;-2.90;99.90
53904;DHT22;39812;52.430;16.936;2023-03-01T04:56:02;-2.80;99.90
53904;DHT22;39812;52.430;16.936;2023-03-01T04:58:28;-2.80;99.90
53904;DHT22;39812;52.430;16.936;2023-03-01T05:00:54;-2.90;99.90
53904;DHT22;39812;52.430;16.936;2023-03-01T05:03:21;-2.80;99.90
53904;DHT22;39812;52.430;16.936;2023-03-01T05:05:50;-3.00;99.90
53904;DHT22;39812;52.430;16.936;2023-03-01T05:08:16;-3.10;99.90
53904;DHT22;39812;52.430;16.936;2023-03-01T05:10:49;-3.10;99.90
53904;DHT22;39812;52.430;16.936;2023-03-01T05:13:15;-3.10;99.90
53904;DHT22;39812;52.430;16.936;2023-03-01T05:15:47;-3.20;99.90
53904;DHT22;39812;52.430;16.936;2023-03-01T05:18:14;-3.20;99.90
53904;DHT22;39812;52.430;16.936;2023-03-01T05:20:39;-3.20;99.90
53904;DHT22;39812;52.430;16.936;2023-03-01T05:23:05;-3.20;99.90
53904;DHT22;39812;52.430;16.936;2023-03-01T05:25:34;-3.20;99.90
53904;DHT22;39812;52.430;16.936;2023-03-01T05:28:01;-3.20;99.90
53904;DHT22;39812;52.430;16.936;2023-03-01T05:30:31;-3.10;99.90
53904;DHT22;39812;52.430;16.936;2023-03-01T05:32:56;-3.10;99.90
53904;DHT22;39812;52.430;16.936;2023-03-01T05:35:22;-3.00;99.90
53904;DHT22;39812;52.430;16.936;2023-03-01T05:37:49;-3.00;99.90
53904;DHT22;39812;52.430;16.936;2023-03-01T05:40:20;-3.00;99.90
53904;DHT22;39812;52.430;16.936;2023-03-01T05:42:49;-2.90;99.90
53904;DHT22;39812;52.430;16.936;2023-03-01T05:45:16;-2.90;99.90
53904;DHT22;39812;52.430;16.936;2023-03-01T05:47:44;-3.00;99.90
53904;DHT22;39812;52.430;16.936;2023-03-01T05:50:24;-2.90;99.90
53904;DHT22;39812;52.430;16.936;2023-03-01T05:53:02;-2.90;99.90
53904;DHT22;39812;52.430;16.936;2023-03-01T05:55:29;-2.90;99.90
53904;DHT22;39812;52.430;16.936;2023-03-01T05:57:58;-2.90;99.90
53904;DHT22;39812;52.430;16.936;2023-03-01T06:00:24;-2.90;99.90
53904;DHT22;39812;52.430;16.936;2023-03-01T06:02:50;-3.00;99.90
53904;DHT22;39812;52.430;16.936;2023-03-01T06:05:17;-3.20;99.90
53904;DHT22;39812;52.430;16.936;2023-03-01T06:07:43;-3.10;99.90
53904;DHT22;39812;52.430;16.936;2023-03-01T06:10:10;-3.20;99.90
53904;DHT22;39812;52.430;16.936;2023-03-01T06:12:38;-3.20;99.90
53904;DHT22;39812;52.430;16.936;2023-03-01T06:15:05;-3.10;99.90
53904;DHT22;39812;52.430;16.936;2023-03-01T06:17:33;-3.00;99.90
53904;DHT22;39812;52.430;16.936;2023-03-01T06:20:09;-2.90;99.90
53904;DHT22;39812;52.430;16.936;2023-03-01T06:22:36;-2.90;99.90
53904;DHT22;39812;52.430;16.936;2023-03-01T06:25:02;-2.80;99.90
53904;DHT22;39812;52.430;16.936;2023-03-01T06:27:27;-2.80;99.90
53904;DHT22;39812;52.430;16.936;2023-03-01T06:29:53;-2.80;99.90
53904;DHT22;39812;52.430;16.936;2023-03-01T06:32:19;-2.60;99.90
53904;DHT22;39812;52.430;16.936;2023-03-01T06:34:45;-2.50;99.90
53904;DHT22;39812;52.430;16.936;2023-03-01T06:37:11;-2.50;99.90
53904;DHT22;39812;52.430;16.936;2023-03-01T06:39:36;-2.40;99.90
53904;DHT22;39812;52.430;16.936;2023-03-01T06:42:02;-2.30;99.90
53904;DHT22;39812;52.430;16.936;2023-03-01T06:44:28;-2.30;99.90
53904;DHT22;39812;52.430;16.936;2023-03-01T06:46:54;-2.10;99.90
53904;DHT22;39812;52.430;16.936;2023-03-01T06:49:20;-1.90;99.90
53904;DHT22;39812;52.430;16.936;2023-03-01T06:51:46;-1.70;99.90
53904;DHT22;39812;52.430;16.936;2023-03-01T06:54:12;-1.60;99.90
53904;DHT22;39812;52.430;16.936;2023-03-01T06:56:38;-1.40;99.90
53904;DHT22;39812;52.430;16.936;2023-03-01T06:59:04;-1.50;99.90
53904;DHT22;39812;52.430;16.936;2023-03-01T07:01:30;-1.50;99.90
53904;DHT22;39812;52.430;16.936;2023-03-01T07:03:56;-1.40;99.90
53904;DHT22;39812;52.430;16.936;2023-03-01T07:06:22;-1.40;99.90
53904;DHT22;39812;52.430;16.936;2023-03-01T07:08:48;-1.40;99.90
53904;DHT22;39812;52.430;16.936;2023-03-01T07:11:14;-1.40;99.90
53904;DHT22;39812;52.430;16.936;2023-03-01T07:13:40;-1.20;99.90
53904;DHT22;39812;52.430;16.936;2023-03-01T07:16:06;-1.10;99.90
53904;DHT22;39812;52.430;16.936;2023-03-01T07:18:32;-1.00;99.90
53904;DHT22;39812;52.430;16.936;2023-03-01T07:20:58;-0.90;99.90
53904;DHT22;39812;52.430;16.936;2023-03-01T07:23:23;-0.80;99.90
53904;DHT22;39812;52.430;16.936;2023-03-01T07:25:55;-0.70;99.90
53904;DHT22;39812;52.430;16.936;2023-03-01T07:28:23;-0.60;99.90
53904;DHT22;39812;52.430;16.936;2023-03-01T07:30:48;-0.50;99.90
53904;DHT22;39812;52.430;16.936;2023-03-01T07:33:14;-0.30;99.90
53904;DHT22;39812;52.430;16.936;2023-03-01T07:35:40;-0.20;99.90
53904;DHT22;39812;52.430;16.936;2023-03-01T07:38:05;0.00;99.90
53904;DHT22;39812;52.430;16.936;2023-03-01T07:40:31;0.10;99.90
53904;DHT22;39812;52.430;16.936;2023-03-01T07:42:57;0.10;99.90
53904;DHT22;39812;52.430;16.936;2023-03-01T07:45:24;0.30;99.90
53904;DHT22;39812;52.430;16.936;2023-03-01T07:47:51;0.30;99.90
53904;DHT22;39812;52.430;16.936;2023-03-01T07:50:17;0.50;99.90
53904;DHT22;39812;52.430;16.936;2023-03-01T07:52:46;0.60;99.90
53904;DHT22;39812;52.430;16.936;2023-03-01T07:55:12;0.80;99.90
53904;DHT22;39812;52.430;16.936;2023-03-01T07:57:38;0.90;99.90
53904;DHT22;39812;52.430;16.936;2023-03-01T08:00:05;1.00;99.90
53904;DHT22;39812;52.430;16.936;2023-03-01T08:02:31;1.00;99.90
53904;DHT22;39812;52.430;16.936;2023-03-01T08:04:57;1.20;99.90
53904;DHT22;39812;52.430;16.936;2023-03-01T08:07:22;1.30;99.90
53904;DHT22;39812;52.430;16.936;2023-03-01T08:09:48;1.40;99.90
53904;DHT22;39812;52.430;16.936;2023-03-01T08:12:14;1.40;99.90
53904;DHT22;39812;52.430;16.936;2023-03-01T08:14:41;1.50;99.90
53904;DHT22;39812;52.430;16.936;2023-03-01T08:17:07;1.60;99.90
53904;DHT22;39812;52.430;16.936;2023-03-01T08:19:33;1.60;99.90
53904;DHT22;39812;52.430;16.936;2023-03-01T08:22:02;1.70;99.90
53904;DHT22;39812;52.430;16.936;2023-03-01T08:24:29;1.80;99.90
53904;DHT22;39812;52.430;16.936;2023-03-01T08:26:55;1.90;99.90
53904;DHT22;39812;52.430;16.936;2023-03-01T08:29:21;2.00;99.90
53904;DHT22;39812;52.430;16.936;2023-03-01T08:31:48;2.10;99.90
53904;DHT22;39812;52.430;16.936;2023-03-01T08:34:15;2.30;99.90
53904;DHT22;39812;52.430;16.936;2023-03-01T08:36:43;2.40;99.90
53904;DHT22;39812;52.430;16.936;2023-03-01T08:39:11;2.50;99.90
53904;DHT22;39812;52.430;16.936;2023-03-01T08:41:37;2.50;99.90
53904;DHT22;39812;52.430;16.936;2023-03-01T08:44:04;2.60;99.90
53904;DHT22;39812;52.430;16.936;2023-03-01T08:46:32;2.60;99.80
53904;DHT22;39812;52.430;16.936;2023-03-01T08:48:58;2.60;99.60
53904;DHT22;39812;52.430;16.936;2023-03-01T08:51:25;2.60;99.90
53904;DHT22;39812;52.430;16.936;2023-03-01T08:53:51;2.70;99.90
53904;DHT22;39812;52.430;16.936;2023-03-01T08:56:18;2.90;99.90
53904;DHT22;39812;52.430;16.936;2023-03-01T08:58:45;2.90;99.90
53904;DHT22;39812;52.430;16.936;2023-03-01T09:01:13;2.90;99.80
53904;DHT22;39812;52.430;16.936;2023-03-01T09:03:40;3.00;99.70
53904;DHT22;39812;52.430;16.936;2023-03-01T09:06:07;3.10;99.60
53904;DHT22;39812;52.430;16.936;2023-03-01T09:08:40;3.20;99.20
53904;DHT22;39812;52.430;16.936;2023-03-01T09:11:08;3.30;99.00
53904;DHT22;39812;52.430;16.936;2023-03-01T09:13:34;3.30;98.80
53904;DHT22;39812;52.430;16.936;2023-03-01T09:16:01;3.40;98.70
53904;DHT22;39812;52.430;16.936;2023-03-01T09:18:28;3.40;98.20
53904;DHT22;39812;52.430;16.936;2023-03-01T09:21:02;3.50;98.30
53904;DHT22;39812;52.430;16.936;2023-03-01T09:23:27;3.50;97.80
53904;DHT22;39812;52.430;16.936;2023-03-01T09:25:53;3.60;97.40
53904;DHT22;39812;52.430;16.936;2023-03-01T09:28:19;3.60;97.50
53904;DHT22;39812;52.430;16.936;2023-03-01T09:30:44;3.60;97.10
53904;DHT22;39812;52.430;16.936;2023-03-01T09:33:10;3.70;97.00
53904;DHT22;39812;52.430;16.936;2023-03-01T09:35:41;3.80;96.80
53904;DHT22;39812;52.430;16.936;2023-03-01T09:38:12;3.80;96.50
53904;DHT22;39812;52.430;16.936;2023-03-01T09:40:43;3.80;96.50
53904;DHT22;39812;52.430;16.936;2023-03-01T09:43:56;3.90;96.40
53904;DHT22;39812;52.430;16.936;2023-03-01T09:46:25;3.90;96.20
53904;DHT22;39812;52.430;16.936;2023-03-01T09:48:56;4.00;96.00
53904;DHT22;39812;52.430;16.936;2023-03-01T09:51:33;4.10;95.90
53904;DHT22;39812;52.430;16.936;2023-03-01T09:54:02;4.20;95.90
53904;DHT22;39812;52.430;16.936;2023-03-01T09:56:36;4.30;95.80
53904;DHT22;39812;52.430;16.936;2023-03-01T10:01:56;4.30;95.40
53904;DHT22;39812;52.430;16.936;2023-03-01T10:09:22;4.40;95.50
53904;DHT22;39812;52.430;16.936;2023-03-01T10:11:53;4.40;95.80
53904;DHT22;39812;52.430;16.936;2023-03-01T10:17:52;4.60;95.50
53904;DHT22;39812;52.430;16.936;2023-03-01T10:20:23;4.60;95.80
53904;DHT22;39812;52.430;16.936;2023-03-01T10:22:49;5.00;95.30
53904;DHT22;39812;52.430;16.936;2023-03-01T10:31:05;5.30;95.00
53904;DHT22;39812;52.430;16.936;2023-03-01T10:33:38;5.50;94.80
53904;DHT22;39812;52.430;16.936;2023-03-01T10:36:08;5.40;94.80
53904;DHT22;39812;52.430;16.936;2023-03-01T10:38:55;5.40;94.60
53904;DHT22;39812;52.430;16.936;2023-03-01T10:41:23;5.60;94.80
53904;DHT22;39812;52.430;16.936;2023-03-01T10:43:51;5.50;94.80
53904;DHT22;39812;52.430;16.936;2023-03-01T10:46:33;5.70;94.80
53904;DHT22;39812;52.430;16.936;2023-03-01T10:49:18;5.60;95.30
53904;DHT22;39812;52.430;16.936;2023-03-01T10:51:45;5.60;95.60
53904;DHT22;39812;52.430;16.936;2023-03-01T10:54:28;5.60;95.80
53904;DHT22;39812;52.430;16.936;2023-03-01T10:56:59;5.60;95.60
53904;DHT22;39812;52.430;16.936;2023-03-01T10:59:29;5.70;95.80
53904;DHT22;39812;52.430;16.936;2023-03-01T11:02:23;5.70;96.00
53904;DHT22;39812;52.430;16.936;2023-03-01T11:05:00;5.70;95.90
53904;DHT22;39812;52.430;16.936;2023-03-01T11:07:26;5.80;96.00
53904;DHT22;39812;52.430;16.936;2023-03-01T11:09:54;5.90;95.60
53904;DHT22;39812;52.430;16.936;2023-03-01T11:12:20;5.90;95.90
53904;DHT22;39812;52.430;16.936;2023-03-01T11:14:48;6.00;95.50
53904;DHT22;39812;52.430;16.936;2023-03-01T11:17:27;6.10;95.80
53904;DHT22;39812;52.430;16.936;2023-03-01T11:20:24;6.00;96.00
53904;DHT22;39812;52.430;16.936;2023-03-01T11:22:54;6.20;95.90
53904;DHT22;39812;52.430;16.936;2023-03-01T11:25:29;6.20;95.60
53904;DHT22;39812;52.430;16.936;2023-03-01T11:27:59;6.30;95.40
53904;DHT22;39812;52.430;16.936;2023-03-01T11:30:39;6.40;95.20
53904;DHT22;39812;52.430;16.936;2023-03-01T11:35:36;7.00;95.00
53904;DHT22;39812;52.430;16.936;2023-03-01T11:44:03;7.40;92.90
53904;DHT22;39812;52.430;16.936;2023-03-01T11:58:24;9.40;90.60
53904;DHT22;39812;52.430;16.936;2023-03-01T12:07:01;13.00;74.90
53904;DHT22;39812;52.430;16.936;2023-03-01T12:09:34;13.30;70.60
53904;DHT22;39812;52.430;16.936;2023-03-01T12:14:54;15.00;62.20
53904;DHT22;39812;52.430;16.936;2023-03-01T12:26:38;18.10;52.70
53904;DHT22;39812;52.430;16.936;2023-03-01T12:29:38;18.30;51.80
53904;DHT22;39812;52.430;16.936;2023-03-01T12:48:40;20.00;46.70
53904;DHT22;39812;52.430;16.936;2023-03-01T12:51:14;20.50;47.00
53904;DHT22;39812;52.430;16.936;2023-03-01T12:53:46;20.50;45.50
53904;DHT22;39812;52.430;16.936;2023-03-01T12:56:17;20.80;45.70
53904;DHT22;39812;52.430;16.936;2023-03-01T13:01:42;20.40;47.50
53904;DHT22;39812;52.430;16.936;2023-03-01T13:07:44;21.10;43.80
53904;DHT22;39812;52.430;16.936;2023-03-01T13:13:24;20.20;45.20
53904;DHT22;39812;52.430;16.936;2023-03-01T13:15:51;20.10;45.60
53904;DHT22;39812;52.430;16.936;2023-03-01T13:20:55;23.60;42.80
53904;DHT22;39812;52.430;16.936;2023-03-01T13:31:08;24.40;40.30
53904;DHT22;39812;52.430;16.936;2023-03-01T13:33:44;24.10;40.40
53904;DHT22;39812;52.430;16.936;2023-03-01T13:36:22;25.20;39.10
53904;DHT22;39812;52.430;16.936;2023-03-01T13:39:04;22.90;40.70
53904;DHT22;39812;52.430;16.936;2023-03-01T13:44:29;21.60;42.80
53904;DHT22;39812;52.430;16.936;2023-03-01T13:49:52;23.40;40.70
53904;DHT22;39812;52.430;16.936;2023-03-01T13:52:39;23.90;40.50
53904;DHT22;39812;52.430;16.936;2023-03-01T13:57:42;21.30;43.00
53904;DHT22;39812;52.430;16.936;2023-03-01T14:00:31;21.40;42.40
53904;DHT22;39812;52.430;16.936;2023-03-01T14:03:20;21.90;41.80
53904;DHT22;39812;52.430;16.936;2023-03-01T14:08:32;22.30;41.10
53904;DHT22;39812;52.430;16.936;2023-03-01T14:13:48;23.40;40.50
53904;DHT22;39812;52.430;16.936;2023-03-01T14:21:32;22.10;40.40
53904;DHT22;39812;52.430;16.936;2023-03-01T14:23:58;22.00;41.90
53904;DHT22;39812;52.430;16.936;2023-03-01T14:26:24;22.90;41.10
53904;DHT22;39812;52.430;16.936;2023-03-01T14:28:50;24.40;39.50
53904;DHT22;39812;52.430;16.936;2023-03-01T14:31:42;23.90;39.40
53904;DHT22;39812;52.430;16.936;2023-03-01T14:34:19;21.20;40.50
53904;DHT22;39812;52.430;16.936;2023-03-01T14:36:45;20.40;43.10
53904;DHT22;39812;52.430;16.936;2023-03-01T14:39:27;21.40;42.70
53904;DHT22;39812;52.430;16.936;2023-03-01T14:41:54;22.30;42.00
53904;DHT22;39812;52.430;16.936;2023-03-01T14:44:22;22.90;40.70
53904;DHT22;39812;52.430;16.936;2023-03-01T14:46:52;21.80;41.50
53904;DHT22;39812;52.430;16.936;2023-03-01T14:49:24;21.30;42.30
53904;DHT22;39812;52.430;16.936;2023-03-01T14:52:02;21.60;42.00
53904;DHT22;39812;52.430;16.936;2023-03-01T14:54:43;20.90;42.70
53904;DHT22;39812;52.430;16.936;2023-03-01T14:57:21;22.30;42.10
53904;DHT22;39812;52.430;16.936;2023-03-01T14:59:51;22.40;41.10
53904;DHT22;39812;52.430;16.936;2023-03-01T15:02:24;24.00;40.70
53904;DHT22;39812;52.430;16.936;2023-03-01T15:04:55;21.50;41.10
53904;DHT22;39812;52.430;16.936;2023-03-01T15:07:39;22.00;42.10
53904;DHT22;39812;52.430;16.936;2023-03-01T15:10:12;20.90;42.50
53904;DHT22;39812;52.430;16.936;2023-03-01T15:12:41;20.00;44.20
53904;DHT22;39812;52.430;16.936;2023-03-01T15:17:56;21.60;42.80
53904;DHT22;39812;52.430;16.936;2023-03-01T15:20:25;22.70;41.70
53904;DHT22;39812;52.430;16.936;2023-03-01T15:22:53;21.20;41.70
53904;DHT22;39812;52.430;16.936;2023-03-01T15:25:23;19.90;43.90
53904;DHT22;39812;52.430;16.936;2023-03-01T15:27:51;19.90;44.60
53904;DHT22;39812;52.430;16.936;2023-03-01T15:32:49;19.20;44.80
53904;DHT22;39812;52.430;16.936;2023-03-01T15:35:47;18.90;45.60
53904;DHT22;39812;52.430;16.936;2023-03-01T15:41:27;18.70;46.00
53904;DHT22;39812;52.430;16.936;2023-03-01T15:43:53;19.00;45.50
53904;DHT22;39812;52.430;16.936;2023-03-01T15:46:32;18.30;46.00
53904;DHT22;39812;52.430;16.936;2023-03-01T15:49:00;18.00;46.70
53904;DHT22;39812;52.430;16.936;2023-03-01T15:51:33;17.00;47.60
53904;DHT22;39812;52.430;16.936;2023-03-01T15:54:04;16.60;48.70
53904;DHT22;39812;52.430;16.936;2023-03-01T15:56:31;16.00;49.90
53904;DHT22;39812;52.430;16.936;2023-03-01T15:58:59;16.40;50.00
53904;DHT22;39812;52.430;16.936;2023-03-01T16:01:26;16.30;49.70
53904;DHT22;39812;52.430;16.936;2023-03-01T16:03:51;15.10;51.10
53904;DHT22;39812;52.430;16.936;2023-03-01T16:06:19;14.10;53.00
53904;DHT22;39812;52.430;16.936;2023-03-01T16:08:44;13.20;55.20
53904;DHT22;39812;52.430;16.936;2023-03-01T16:11:17;12.30;56.60
53904;DHT22;39812;52.430;16.936;2023-03-01T16:13:43;12.00;58.20
53904;DHT22;39812;52.430;16.936;2023-03-01T16:16:14;11.40;59.20
53904;DHT22;39812;52.430;16.936;2023-03-01T16:18:45;10.80;60.20
53904;DHT22;39812;52.430;16.936;2023-03-01T16:21:14;10.50;61.20
53904;DHT22;39812;52.430;16.936;2023-03-01T16:23:42;9.90;62.80
53904;DHT22;39812;52.430;16.936;2023-03-01T16:26:08;9.30;64.40
53904;DHT22;39812;52.430;16.936;2023-03-01T16:28:34;8.70;66.40
53904;DHT22;39812;52.430;16.936;2023-03-01T16:31:00;8.00;68.40
53904;DHT22;39812;52.430;16.936;2023-03-01T16:33:27;7.40;70.40
53904;DHT22;39812;52.430;16.936;2023-03-01T16:35:52;6.90;72.60
53904;DHT22;39812;52.430;16.936;2023-03-01T16:38:18;6.60;74.80
53904;DHT22;39812;52.430;16.936;2023-03-01T16:40:48;6.20;77.00
53904;DHT22;39812;52.430;16.936;2023-03-01T16:43:14;5.90;79.10
53904;DHT22;39812;52.430;16.936;2023-03-01T16:45:39;5.70;81.50
53904;DHT22;39812;52.430;16.936;2023-03-01T16:48:10;5.50;84.00
53904;DHT22;39812;52.430;16.936;2023-03-01T16:50:36;5.30;86.80
53904;DHT22;39812;52.430;16.936;2023-03-01T16:53:01;5.30;89.50
53904;DHT22;39812;52.430;16.936;2023-03-01T16:55:28;5.20;90.80
53904;DHT22;39812;52.430;16.936;2023-03-01T16:57:53;5.10;92.30
53904;DHT22;39812;52.430;16.936;2023-03-01T17:00:19;5.00;93.10
53904;DHT22;39812;52.430;16.936;2023-03-01T17:02:46;5.00;94.20
53904;DHT22;39812;52.430;16.936;2023-03-01T17:05:12;4.90;95.10
53904;DHT22;39812;52.430;16.936;2023-03-01T17:07:38;4.80;96.50
53904;DHT22;39812;52.430;16.936;2023-03-01T17:10:06;4.80;96.80
53904;DHT22;39812;52.430;16.936;2023-03-01T17:12:33;4.80;97.60
53904;DHT22;39812;52.430;16.936;2023-03-01T17:14:59;4.80;98.10
53904;DHT22;39812;52.430;16.936;2023-03-01T17:17:26;4.60;98.70
53904;DHT22;39812;52.430;16.936;2023-03-01T17:19:51;4.60;99.40
53904;DHT22;39812;52.430;16.936;2023-03-01T17:22:18;4.50;99.90
53904;DHT22;39812;52.430;16.936;2023-03-01T17:24:44;4.50;99.90
53904;DHT22;39812;52.430;16.936;2023-03-01T17:27:11;4.60;99.90
53904;DHT22;39812;52.430;16.936;2023-03-01T17:29:38;4.60;99.90
53904;DHT22;39812;52.430;16.936;2023-03-01T17:32:04;4.50;99.90
53904;DHT22;39812;52.430;16.936;2023-03-01T17:34:31;4.50;99.90
53904;DHT22;39812;52.430;16.936;2023-03-01T17:36:56;4.50;99.90
53904;DHT22;39812;52.430;16.936;2023-03-01T17:39:22;4.40;99.90